Time;durP1;ratioP1;P1;durP2;ratioP2;P2;SDS_P1;SDS_P2;PMS_P1;PMS_P2;Temp;Humidity;BMP_temperature;BMP_pressure;BME280_temperature;BME280_humidity;BME280_pressure;Samples;Min_cycle;Max_cycle;Signal;HPM_P1;HPM_P2
2022/12/16 00:01:17;;;;;;;77.00;32.00;;;-6.00;99.90;;;;;;8367967;28;20278;-81
2022/12/16 00:05:19;;;;;;;82.93;36.30;;;-6.10;99.90;;;;;;8375924;28;20185;-81
2022/12/16 00:09:20;;;;;;;77.67;35.67;;;-6.00;99.90;;;;;;8371016;28;20209;-81
2022/12/16 00:13:21;;;;;;;87.00;37.47;;;-6.00;99.90;;;;;;8375889;28;20189;-78
2022/12/16 00:17:22;;;;;;;85.93;36.10;;;-6.00;99.90;;;;;;8371840;28;20189;-81
2022/12/16 00:21:27;;;;;;;85.80;36.93;;;-6.00;99.90;;;;;;8370007;28;20593;-79
2022/12/16 00:25:28;;;;;;;85.27;36.97;;;-6.00;99.90;;;;;;8367298;28;20184;-80
2022/12/16 00:29:29;;;;;;;89.13;38.83;;;-5.90;99.90;;;;;;8373349;28;20181;-79
2022/12/16 00:33:30;;;;;;;103.03;44.23;;;-5.80;99.90;;;;;;8367767;28;20197;-80
2022/12/16 00:37:31;;;;;;;107.40;48.47;;;-5.80;99.90;;;;;;8372977;28;20289;-77
2022/12/16 00:41:32;;;;;;;75.73;33.90;;;-5.70;99.90;;;;;;8372056;28;20176;-80
2022/12/16 00:45:33;;;;;;;69.53;30.63;;;-5.60;99.90;;;;;;8380691;28;20186;-80
2022/12/16 00:49:34;;;;;;;59.97;27.17;;;-5.60;99.90;;;;;;8376406;28;20186;-76
2022/12/16 00:53:35;;;;;;;64.17;30.83;;;-5.60;99.90;;;;;;8373603;28;20247;-78
2022/12/16 00:57:36;;;;;;;80.13;31.27;;;-5.60;99.90;;;;;;8374877;28;20296;-80
2022/12/16 01:01:37;;;;;;;80.10;32.50;;;-5.60;99.90;;;;;;8373321;28;20182;-77
2022/12/16 01:05:39;;;;;;;72.13;33.47;;;-5.50;99.90;;;;;;8367890;28;20268;-77
2022/12/16 01:09:40;;;;;;;69.63;34.10;;;-5.50;99.90;;;;;;8377113;28;20223;-81
2022/12/16 01:13:41;;;;;;;64.77;31.00;;;-5.50;99.90;;;;;;8371929;28;20181;-80
2022/12/16 01:17:42;;;;;;;63.30;32.33;;;-5.40;1.00;;;;;;8368078;28;20255;-80
2022/12/16 01:21:43;;;;;;;68.43;32.30;;;-5.30;1.00;;;;;;8377649;28;20936;-80
2022/12/16 01:25:44;;;;;;;71.10;34.23;;;-5.20;1.00;;;;;;8370342;28;20184;-77
2022/12/16 01:29:44;;;;;;;77.10;33.57;;;-5.10;1.00;;;;;;8366947;28;20216;-81
2022/12/16 01:33:45;;;;;;;69.13;33.50;;;-5.10;1.00;;;;;;8369084;28;20224;-78
2022/12/16 01:37:46;;;;;;;76.00;34.87;;;-5.00;1.00;;;;;;8364754;28;20208;-77
2022/12/16 01:41:47;;;;;;;73.83;35.27;;;-4.90;1.00;;;;;;8368893;28;20638;-79
2022/12/16 01:45:48;;;;;;;69.30;34.70;;;-4.90;1.00;;;;;;8370086;28;20188;-77
2022/12/16 01:49:54;;;;;;;64.47;32.33;;;-4.80;1.00;;;;;;8367093;28;20235;-80
2022/12/16 01:54:06;;;;;;;69.97;33.07;;;-4.80;1.00;;;;;;8369178;28;20230;-80
2022/12/16 01:58:21;;;;;;;69.33;31.83;;;-4.80;94.00;;;;;;8363967;28;20456;-80
2022/12/16 02:02:23;;;;;;;73.90;32.20;;;-4.80;99.90;;;;;;8360659;28;20189;-78
2022/12/16 02:06:24;;;;;;;62.97;31.03;;;-4.70;99.90;;;;;;8378862;28;20478;-80
2022/12/16 02:10:38;;;;;;;71.03;31.93;;;-4.70;99.90;;;;;;8369903;28;20200;-80
2022/12/16 02:14:39;;;;;;;67.63;34.37;;;-4.70;99.90;;;;;;8362259;28;20192;-81
2022/12/16 02:19:01;;;;;;;61.80;29.53;;;-4.60;99.90;;;;;;8373374;28;20198;-77
2022/12/16 02:23:23;;;;;;;65.73;30.50;;;-4.60;68.50;;;;;;8365424;28;20187;-79
2022/12/16 02:27:42;;;;;;;65.80;32.20;;;-4.60;99.90;;;;;;8364610;28;20261;-80
2022/12/16 02:31:59;;;;;;;62.60;31.40;;;-4.60;99.90;;;;;;8367687;28;20177;-81
2022/12/16 02:36:03;;;;;;;67.73;31.63;;;-4.60;99.90;;;;;;8368854;28;20288;-81
2022/12/16 02:40:26;;;;;;;66.40;30.87;;;-4.60;99.90;;;;;;8367165;28;20194;-78
2022/12/16 02:44:40;;;;;;;68.33;31.17;;;-4.60;99.90;;;;;;8366958;28;20212;-80
2022/12/16 02:48:41;;;;;;;83.47;38.40;;;-4.50;99.90;;;;;;8370621;28;20200;-77
2022/12/16 02:52:42;;;;;;;100.33;41.23;;;-4.50;99.90;;;;;;8368726;28;20189;-81
2022/12/16 02:57:21;;;;;;;69.07;33.57;;;-4.50;1.00;;;;;;8366314;28;20217;-78
2022/12/16 03:01:46;;;;;;;69.40;31.13;;;-4.40;1.00;;;;;;8296923;28;20324;-81
2022/12/16 03:05:49;;;;;;;61.13;31.90;;;-4.40;1.00;;;;;;8373267;28;20179;-81
2022/12/16 03:09:52;;;;;;;59.47;30.83;;;-4.40;1.00;;;;;;8359753;28;20286;-80
2022/12/16 03:13:55;;;;;;;69.60;33.37;;;-4.40;1.00;;;;;;8372652;28;20173;-81
2022/12/16 03:17:57;;;;;;;64.90;31.87;;;-4.40;1.00;;;;;;8366064;28;20206;-78
2022/12/16 03:22:13;;;;;;;56.83;29.63;;;-4.30;1.00;;;;;;8371841;28;20178;-77
2022/12/16 03:26:48;;;;;;;61.37;31.70;;;-4.30;92.00;;;;;;8367576;28;20182;-77
2022/12/16 03:31:00;;;;;;;63.33;31.13;;;-4.30;99.90;;;;;;8366120;28;20186;-81
2022/12/16 03:35:20;;;;;;;70.87;33.13;;;-4.30;99.90;;;;;;8369994;28;20207;-81
2022/12/16 03:39:22;;;;;;;64.53;31.53;;;-4.20;99.90;;;;;;8363827;28;20300;-77
2022/12/16 03:43:24;;;;;;;78.67;35.93;;;-4.20;89.20;;;;;;8371920;28;20177;-80
2022/12/16 03:47:28;;;;;;;86.97;40.60;;;-4.20;99.90;;;;;;8371064;28;20181;-77
2022/12/16 03:51:29;;;;;;;76.20;39.33;;;-4.20;99.90;;;;;;8369363;28;20491;-77
2022/12/16 03:55:30;;;;;;;68.43;35.27;;;-4.10;99.90;;;;;;8363847;28;20185;-81
2022/12/16 03:59:30;;;;;;;67.97;33.93;;;-4.10;99.90;;;;;;8366677;28;20263;-78
2022/12/16 04:03:31;;;;;;;67.17;32.37;;;-4.10;99.90;;;;;;8369952;28;20177;-78
2022/12/16 04:07:32;;;;;;;62.60;32.27;;;-4.10;99.90;;;;;;8364755;28;20173;-81
2022/12/16 04:24:39;;;;;;;105.50;53.97;;;-4.00;99.90;;;;;;8369818;28;20209;-77
2022/12/16 04:28:40;;;;;;;86.13;43.87;;;-4.00;99.60;;;;;;8372262;28;20178;-77
